createdAt,value
2019-03-08T00:01:44.372Z,47.62
2019-03-08T00:04:14.863Z,47.64
2019-03-08T00:06:45.073Z,47.66
2019-03-08T00:09:15.288Z,47.70
2019-03-08T00:11:47.039Z,47.72
2019-03-08T00:14:17.649Z,47.76
2019-03-08T00:16:48.200Z,47.78
2019-03-08T00:19:18.413Z,47.80
2019-03-08T00:21:48.647Z,47.84
2019-03-08T00:24:18.861Z,47.84
2019-03-08T00:26:49.086Z,47.86
2019-03-08T00:29:20.058Z,47.90
2019-03-08T00:31:51.763Z,47.90
2019-03-08T00:34:22.395Z,47.94
2019-03-08T00:36:53.014Z,47.99
2019-03-08T00:39:23.641Z,48.00
2019-03-08T00:41:54.390Z,48.04
2019-03-08T00:44:24.599Z,48.07
2019-03-08T00:46:54.835Z,48.10
2019-03-08T00:49:25.044Z,48.15
2019-03-08T00:51:55.333Z,48.18
2019-03-08T00:54:25.501Z,48.21
2019-03-08T00:56:55.730Z,48.26
2019-03-08T00:59:25.979Z,48.28
2019-03-08T01:01:56.604Z,48.33
2019-03-08T01:04:26.903Z,48.39
2019-03-08T01:06:57.105Z,48.43
2019-03-08T01:09:27.385Z,48.44
2019-03-08T01:11:57.599Z,48.46
2019-03-08T01:14:27.966Z,48.48
2019-03-08T01:16:58.428Z,48.54
2019-03-08T01:19:28.669Z,48.56
2019-03-08T01:21:59.318Z,48.60
2019-03-08T01:24:30.190Z,48.64
2019-03-08T01:27:00.841Z,48.68
2019-03-08T01:29:31.159Z,48.68
2019-03-08T01:32:01.708Z,48.72
2019-03-08T01:34:32.104Z,48.78
2019-03-08T01:37:02.306Z,48.82
2019-03-08T01:39:32.543Z,48.84
2019-03-08T01:42:02.746Z,48.87
2019-03-08T01:44:33.921Z,48.91
2019-03-08T01:47:04.591Z,48.95
2019-03-08T01:49:35.147Z,48.99
2019-03-08T01:52:05.780Z,49.03
2019-03-08T01:54:36.061Z,49.07
2019-03-08T01:57:06.278Z,49.11
2019-03-08T01:59:36.988Z,49.16
2019-03-08T02:02:07.226Z,49.19
2019-03-08T02:04:37.726Z,49.24
2019-03-08T02:07:09.054Z,49.29
2019-03-08T02:09:39.778Z,49.34
2019-03-08T02:12:11.231Z,49.36
2019-03-08T02:14:41.867Z,49.43
2019-03-08T02:17:12.228Z,49.48
2019-03-08T02:19:42.457Z,49.53
2019-03-08T02:22:12.688Z,49.56
2019-03-08T02:24:43.421Z,49.60
2019-03-08T02:27:13.713Z,49.65
2019-03-08T02:29:43.941Z,49.72
2019-03-08T02:32:14.144Z,49.77
2019-03-08T02:34:45.340Z,49.84
2019-03-08T02:37:15.904Z,49.88
2019-03-08T02:39:46.835Z,49.94
2019-03-08T02:42:17.460Z,49.96
2019-03-08T02:44:47.780Z,50.02
2019-03-08T02:47:18.393Z,50.04
2019-03-08T02:49:49.305Z,50.10
2019-03-08T02:52:21.203Z,50.13
2019-03-08T02:54:51.493Z,50.16
2019-03-08T02:57:21.711Z,50.20
2019-03-08T02:59:52.272Z,50.23
2019-03-08T03:02:23.199Z,50.23
2019-03-08T03:04:53.498Z,50.26
2019-03-08T03:07:23.733Z,50.27
2019-03-08T03:09:54.395Z,50.30
2019-03-08T03:12:24.734Z,50.33
2019-03-08T03:14:55.386Z,50.33
2019-03-08T03:17:26.112Z,50.37
2019-03-08T03:19:56.737Z,50.39
2019-03-08T03:22:27.012Z,50.42
2019-03-08T03:24:57.574Z,50.45
2019-03-08T03:27:28.198Z,50.48
2019-03-08T03:29:58.491Z,50.50
2019-03-08T03:32:28.694Z,50.55
2019-03-08T03:34:59.426Z,50.60
2019-03-08T03:37:29.702Z,50.63
2019-03-08T03:39:59.926Z,50.67
2019-03-08T03:42:30.128Z,50.72
2019-03-08T03:45:00.741Z,50.76
2019-03-08T03:47:31.350Z,50.81
2019-03-08T03:50:02.749Z,50.84
2019-03-08T03:52:32.980Z,50.87
2019-03-08T03:55:03.413Z,50.92
2019-03-08T03:57:33.618Z,50.98
2019-03-08T04:00:06.765Z,51.00
2019-03-08T04:02:36.960Z,51.07
2019-03-08T04:05:09.303Z,51.09
2019-03-08T04:07:39.926Z,51.14
2019-03-08T04:10:16.821Z,51.19
2019-03-08T04:12:47.394Z,51.23
2019-03-08T04:15:19.246Z,51.26
2019-03-08T04:17:50.468Z,51.32
2019-03-08T04:20:22.033Z,51.37
2019-03-08T04:22:52.497Z,51.42
2019-03-08T04:25:22.707Z,51.45
2019-03-08T04:27:52.939Z,51.51
2019-03-08T04:30:23.428Z,51.55
2019-03-08T04:32:54.038Z,51.60
2019-03-08T04:35:24.314Z,51.65
2019-03-08T04:37:54.586Z,51.69
2019-03-08T04:40:25.864Z,51.74
2019-03-08T04:42:56.922Z,51.78
2019-03-08T04:45:27.188Z,51.82
2019-03-08T04:47:57.398Z,51.85
2019-03-08T04:50:27.603Z,51.89
2019-03-08T04:52:58.221Z,51.94
2019-03-08T04:55:28.863Z,51.99
2019-03-08T04:57:59.179Z,52.04
2019-03-08T05:00:29.857Z,52.10
2019-03-08T05:03:00.165Z,52.13
2019-03-08T05:05:30.719Z,52.17
2019-03-08T05:08:01.401Z,52.19
2019-03-08T05:10:31.660Z,52.24
2019-03-08T05:13:01.888Z,52.29
2019-03-08T05:15:32.090Z,52.32
2019-03-08T05:18:03.031Z,52.37
2019-03-08T05:20:33.303Z,52.41
2019-03-08T05:23:03.507Z,52.42
2019-03-08T05:25:34.186Z,52.44
2019-03-08T05:28:04.986Z,52.48
2019-03-08T05:30:35.835Z,52.52
2019-03-08T05:33:08.018Z,52.57
2019-03-08T05:35:38.640Z,52.59
2019-03-08T05:38:09.363Z,52.63
2019-03-08T05:40:39.986Z,52.66
2019-03-08T05:43:10.356Z,52.69
2019-03-08T05:45:40.570Z,52.74
2019-03-08T05:48:11.084Z,52.77
2019-03-08T05:50:41.280Z,52.84
2019-03-08T05:53:11.490Z,52.90
2019-03-08T05:55:41.695Z,52.94
2019-03-08T05:58:11.912Z,52.96
2019-03-08T06:00:42.107Z,53.04
2019-03-08T06:03:12.555Z,53.14
2019-03-08T06:05:42.798Z,53.12
2019-03-08T06:08:12.996Z,53.11
2019-03-08T06:10:43.801Z,53.17
2019-03-08T06:13:14.081Z,53.14
2019-03-08T06:15:44.596Z,53.11
2019-03-08T06:18:14.877Z,53.16
2019-03-08T06:20:45.183Z,53.17
2019-03-08T06:23:15.776Z,53.17
2019-03-08T06:25:46.060Z,53.11
2019-03-08T06:28:16.755Z,53.02
2019-03-08T06:30:47.097Z,52.95
2019-03-08T06:33:17.711Z,52.89
2019-03-08T06:35:48.361Z,52.84
2019-03-08T06:38:19.007Z,52.75
2019-03-08T06:40:49.293Z,52.64
2019-03-08T06:43:19.898Z,52.49
2019-03-08T06:45:50.502Z,52.29
2019-03-08T06:48:20.794Z,52.05
2019-03-08T06:50:51.012Z,51.79
2019-03-08T06:53:21.253Z,51.53
2019-03-08T06:55:51.899Z,51.25
2019-03-08T06:58:30.161Z,50.97
2019-03-08T07:01:00.579Z,50.74
2019-03-08T07:03:31.443Z,50.48
2019-03-08T07:06:02.095Z,50.25
2019-03-08T07:08:32.376Z,49.99
2019-03-08T07:11:02.673Z,49.79
2019-03-08T07:13:32.968Z,49.61
2019-03-08T07:16:12.505Z,49.42
2019-03-08T07:18:35.101Z,49.27
2019-03-08T07:21:09.868Z,49.13
2019-03-08T07:23:56.687Z,48.98
2019-03-08T07:26:31.702Z,48.86
2019-03-08T07:29:06.941Z,48.73
2019-03-08T07:31:47.878Z,48.60
2019-03-08T07:34:36.190Z,48.47
2019-03-08T07:37:26.051Z,48.38
2019-03-08T07:40:06.635Z,48.24
2019-03-08T07:42:42.263Z,48.07
2019-03-08T07:45:17.553Z,47.89
2019-03-08T07:47:51.062Z,47.69
2019-03-08T07:50:23.358Z,47.46
2019-03-08T07:52:57.950Z,47.25
2019-03-08T07:55:42.367Z,47.04
2019-03-08T07:58:14.635Z,46.82
2019-03-08T08:00:46.561Z,46.59
2019-03-08T08:03:21.871Z,46.37
2019-03-08T08:06:10.124Z,46.11
2019-03-08T08:08:51.383Z,45.82
2019-03-08T08:11:24.640Z,45.53
2019-03-08T08:14:02.632Z,45.24
2019-03-08T08:16:43.391Z,44.98
2019-03-08T08:19:17.857Z,44.69
2019-03-08T08:21:53.148Z,44.41
2019-03-08T08:24:31.369Z,44.13
2019-03-08T08:27:14.909Z,43.84
2019-03-08T08:29:53.739Z,43.61
2019-03-08T08:32:41.403Z,43.32
2019-03-08T08:35:19.474Z,43.04
2019-03-08T08:38:00.728Z,42.77
2019-03-08T08:40:48.931Z,42.50
2019-03-08T08:43:33.617Z,42.25
2019-03-08T08:46:18.975Z,41.96
2019-03-08T08:49:05.552Z,41.68
2019-03-08T08:51:50.535Z,41.39
2019-03-08T08:54:39.298Z,41.14
2019-03-08T08:57:11.693Z,40.90
2019-03-08T08:59:54.275Z,40.65
2019-03-08T09:02:29.331Z,40.42
2019-03-08T09:05:07.299Z,40.22
2019-03-08T09:07:42.870Z,40.04
2019-03-08T09:10:16.267Z,39.85
2019-03-08T09:12:48.637Z,39.65
2019-03-08T09:15:25.530Z,39.45
2019-03-08T09:18:04.703Z,39.23
2019-03-08T09:20:50.379Z,39.07
2019-03-08T09:23:38.286Z,38.87
2019-03-08T09:26:26.849Z,38.71
2019-03-08T09:29:08.589Z,38.49
2019-03-08T09:31:43.852Z,38.29
2019-03-08T09:34:18.876Z,38.10
2019-03-08T09:36:55.174Z,37.96
2019-03-08T09:39:31.589Z,37.79
2019-03-08T09:42:19.448Z,37.70
2019-03-08T09:45:07.799Z,37.59
2019-03-08T09:47:39.936Z,37.52
2019-03-08T09:50:22.566Z,37.46
2019-03-08T09:52:54.902Z,37.39
2019-03-08T09:55:27.452Z,37.34
2019-03-08T09:58:02.635Z,37.33
2019-03-08T10:00:34.579Z,37.31
2019-03-08T10:03:21.770Z,37.26
2019-03-08T10:06:03.044Z,37.22
2019-03-08T10:08:38.097Z,37.12
2019-03-08T10:11:18.987Z,37.00
2019-03-08T10:14:07.657Z,36.91
2019-03-08T10:16:39.963Z,36.77
2019-03-08T10:19:28.208Z,36.67
2019-03-08T10:22:06.424Z,36.51
2019-03-08T10:24:42.587Z,36.38
2019-03-08T10:27:15.350Z,36.29
2019-03-08T10:29:51.521Z,36.15
2019-03-08T10:32:37.670Z,36.01
2019-03-08T10:35:24.118Z,35.86
2019-03-08T10:37:55.424Z,35.72
2019-03-08T10:40:40.259Z,35.61
2019-03-08T10:43:27.075Z,35.52
2019-03-08T10:46:15.910Z,35.45
2019-03-08T10:48:58.581Z,35.40
2019-03-08T10:51:46.213Z,35.40
2019-03-08T10:54:30.383Z,35.39
2019-03-08T10:57:02.607Z,35.37
2019-03-08T10:59:40.867Z,35.38
2019-03-08T11:02:22.119Z,35.36
2019-03-08T11:04:54.505Z,35.37
2019-03-08T11:07:32.320Z,35.36
2019-03-08T11:10:16.646Z,35.33
2019-03-08T11:12:51.785Z,35.31
2019-03-08T11:15:29.432Z,35.28
2019-03-08T11:18:04.567Z,35.23
2019-03-08T11:20:51.767Z,35.19
2019-03-08T11:23:40.494Z,35.14
2019-03-08T11:26:14.933Z,35.09
2019-03-08T11:28:49.754Z,35.10
2019-03-08T11:31:34.925Z,35.09
2019-03-08T11:34:10.034Z,35.04
2019-03-08T11:36:51.291Z,35.04
2019-03-08T11:39:24.064Z,35.04
2019-03-08T11:42:00.169Z,35.05
2019-03-08T11:44:38.273Z,35.06
2019-03-08T11:47:26.851Z,35.03
2019-03-08T11:50:09.033Z,35.01
2019-03-08T11:52:41.362Z,34.98
2019-03-08T11:55:20.200Z,34.94
2019-03-08T11:57:58.284Z,34.92
2019-03-08T12:00:48.566Z,34.89
2019-03-08T12:03:39.279Z,34.89
2019-03-08T12:06:11.577Z,34.85
2019-03-08T12:08:43.860Z,34.82
2019-03-08T12:11:33.462Z,34.79
2019-03-08T12:14:11.958Z,34.77
2019-03-08T12:16:44.229Z,34.75
2019-03-08T12:19:33.012Z,34.73
2019-03-08T12:22:09.476Z,34.70
2019-03-08T12:24:44.126Z,34.68
2019-03-08T12:27:21.939Z,34.69
2019-03-08T12:29:56.746Z,34.69
2019-03-08T12:32:34.326Z,34.67
2019-03-08T12:35:07.158Z,34.66
2019-03-08T12:37:53.886Z,34.66
2019-03-08T12:40:31.465Z,34.63
2019-03-08T12:43:08.117Z,34.61
2019-03-08T12:45:55.791Z,34.61
2019-03-08T12:48:26.469Z,34.61
2019-03-08T12:51:01.321Z,34.59
2019-03-08T12:53:45.490Z,34.58
2019-03-08T12:56:20.214Z,34.57
2019-03-08T12:59:07.459Z,34.54
2019-03-08T13:01:45.085Z,34.55
2019-03-08T13:04:20.544Z,34.54
2019-03-08T13:07:04.157Z,34.55
2019-03-08T13:09:36.407Z,34.57
2019-03-08T13:12:07.038Z,34.59
2019-03-08T13:14:37.313Z,34.59
2019-03-08T13:17:08.691Z,34.60
2019-03-08T13:19:39.470Z,34.61
2019-03-08T13:22:10.325Z,34.63
2019-03-08T13:24:40.983Z,34.64
2019-03-08T13:27:11.926Z,34.65
2019-03-08T13:29:42.201Z,34.68
2019-03-08T13:32:12.484Z,34.68
2019-03-08T13:34:42.738Z,34.70
2019-03-08T13:37:13.560Z,34.70
2019-03-08T13:39:43.951Z,34.74
2019-03-08T13:42:14.298Z,34.74
2019-03-08T13:44:45.051Z,34.73
2019-03-08T13:47:15.826Z,34.73
2019-03-08T13:49:46.445Z,34.76
2019-03-08T13:52:16.748Z,34.77
2019-03-08T13:54:46.988Z,34.77
2019-03-08T13:57:17.669Z,34.79
2019-03-08T13:59:51.132Z,34.81
2019-03-08T14:02:21.492Z,34.85
2019-03-08T14:04:52.045Z,34.86
2019-03-08T14:07:22.718Z,34.88
2019-03-08T14:09:53.628Z,34.88
2019-03-08T14:12:25.700Z,34.93
2019-03-08T14:14:56.461Z,34.94
2019-03-08T14:17:49.163Z,34.95
2019-03-08T14:20:10.353Z,34.97
2019-03-08T14:22:41.965Z,34.99
2019-03-08T14:25:13.122Z,35.01
2019-03-08T14:27:43.341Z,35.03
2019-03-08T14:30:16.998Z,35.02
2019-03-08T14:32:47.622Z,35.04
2019-03-08T14:35:18.057Z,35.05
2019-03-08T14:37:52.350Z,35.03
2019-03-08T14:40:25.333Z,35.01
2019-03-08T14:42:58.520Z,35.01
2019-03-08T14:45:40.541Z,34.99
2019-03-08T14:48:11.436Z,35.00
2019-03-08T14:50:41.740Z,34.98
2019-03-08T14:53:11.947Z,34.98
2019-03-08T14:55:43.962Z,34.98
2019-03-08T14:58:16.805Z,35.00
2019-03-08T15:00:47.073Z,35.01
2019-03-08T15:03:20.133Z,35.00
2019-03-08T15:05:54.776Z,35.00
2019-03-08T15:08:24.705Z,35.03
2019-03-08T15:10:55.776Z,35.05
2019-03-08T15:13:27.477Z,35.05
2019-03-08T15:16:02.234Z,35.07
2019-03-08T15:18:31.224Z,35.08
2019-03-08T15:21:02.167Z,35.10
2019-03-08T15:23:32.890Z,35.12
2019-03-08T15:26:03.614Z,35.14
2019-03-08T15:28:34.261Z,35.17
2019-03-08T15:31:04.551Z,35.17
2019-03-08T15:33:34.805Z,35.18
2019-03-08T15:36:05.055Z,35.20
2019-03-08T15:38:36.898Z,35.23
2019-03-08T15:41:07.552Z,35.24
2019-03-08T15:43:38.193Z,35.29
2019-03-08T15:46:08.495Z,35.27
2019-03-08T15:48:38.748Z,35.32
2019-03-08T15:51:10.961Z,35.33
2019-03-08T15:53:42.666Z,35.33
2019-03-08T15:56:12.973Z,35.35
2019-03-08T15:58:43.571Z,35.35
2019-03-08T16:01:14.050Z,35.34
2019-03-08T16:03:44.693Z,35.35
2019-03-08T16:06:14.977Z,35.35
2019-03-08T16:08:45.307Z,35.37
2019-03-08T16:11:21.589Z,35.36
2019-03-08T16:13:52.488Z,35.39
2019-03-08T16:16:23.860Z,35.40
2019-03-08T16:18:54.419Z,35.40
2019-03-08T16:21:25.082Z,35.41
2019-03-08T16:23:57.043Z,35.43
2019-03-08T16:26:27.327Z,35.45
2019-03-08T16:28:57.458Z,35.47
2019-03-08T16:31:34.839Z,35.47
2019-03-08T16:34:07.235Z,35.49
2019-03-08T16:36:39.183Z,35.51
2019-03-08T16:39:11.004Z,35.53
2019-03-08T16:41:42.787Z,35.54
2019-03-08T16:44:31.203Z,35.59
2019-03-08T16:47:03.657Z,35.59
2019-03-08T16:49:41.794Z,35.61
2019-03-08T16:52:28.475Z,35.64
2019-03-08T16:55:02.701Z,35.67
2019-03-08T16:57:52.060Z,35.71
2019-03-08T17:00:23.913Z,35.71
2019-03-08T17:03:02.651Z,35.74
2019-03-08T17:05:35.233Z,35.79
2019-03-08T17:08:25.209Z,35.80
2019-03-08T17:11:14.022Z,35.83
2019-03-08T17:13:46.024Z,35.83
2019-03-08T17:16:27.347Z,35.85
2019-03-08T17:19:11.697Z,35.89
2019-03-08T17:21:38.484Z,35.91
2019-03-08T17:24:10.402Z,35.93
2019-03-08T17:26:42.888Z,35.95
2019-03-08T17:29:33.353Z,36.00
2019-03-08T17:32:14.613Z,36.02
2019-03-08T17:34:49.309Z,36.04
2019-03-08T17:37:26.699Z,36.11
2019-03-08T17:40:15.695Z,36.16
2019-03-08T17:42:59.853Z,36.24
2019-03-08T17:45:32.207Z,36.32
2019-03-08T17:48:09.930Z,36.39
2019-03-08T17:50:57.868Z,36.44
2019-03-08T17:53:31.300Z,36.48
2019-03-08T17:56:03.263Z,36.55
2019-03-08T17:58:50.511Z,36.63
2019-03-08T18:01:22.346Z,36.70
2019-03-08T18:03:59.667Z,36.75
2019-03-08T18:06:31.868Z,36.81
2019-03-08T18:09:12.636Z,36.89
2019-03-08T18:11:47.488Z,36.95
2019-03-08T18:14:34.953Z,37.02
2019-03-08T18:17:15.518Z,37.07
2019-03-08T18:19:50.141Z,37.13
2019-03-08T18:22:37.556Z,37.21
2019-03-08T18:25:12.936Z,37.28
2019-03-08T18:28:01.094Z,37.33
2019-03-08T18:30:32.952Z,37.40
2019-03-08T18:33:19.723Z,37.48
2019-03-08T18:36:07.959Z,37.52
2019-03-08T18:38:52.208Z,37.60
2019-03-08T18:41:30.232Z,37.65
2019-03-08T18:44:11.381Z,37.72
2019-03-08T18:46:55.550Z,37.79
2019-03-08T18:49:43.124Z,37.84
2019-03-08T18:52:25.019Z,37.90
2019-03-08T18:55:06.078Z,37.97
2019-03-08T18:57:40.857Z,38.03
2019-03-08T19:00:15.844Z,38.09
2019-03-08T19:03:05.827Z,38.18
2019-03-08T19:05:40.327Z,38.22
2019-03-08T19:08:14.947Z,38.30
2019-03-08T19:10:49.872Z,38.35
2019-03-08T19:13:30.863Z,38.42
2019-03-08T19:16:02.724Z,38.48
2019-03-08T19:18:40.911Z,38.52
2019-03-08T19:21:16.496Z,38.60
2019-03-08T19:23:48.733Z,38.62
2019-03-08T19:26:21.337Z,38.69
2019-03-08T19:29:04.261Z,38.74
2019-03-08T19:31:36.532Z,38.80
2019-03-08T19:34:08.870Z,38.88
2019-03-08T19:36:43.260Z,38.94
2019-03-08T19:39:18.076Z,39.02
2019-03-08T19:42:05.153Z,39.06
2019-03-08T19:44:42.816Z,39.11
2019-03-08T19:47:31.003Z,39.17
2019-03-08T19:50:18.106Z,39.24
2019-03-08T19:52:50.108Z,39.31
2019-03-08T19:55:24.721Z,39.38
2019-03-08T19:57:56.616Z,39.44
2019-03-08T20:00:28.938Z,39.49
2019-03-08T20:03:01.145Z,39.54
2019-03-08T20:05:51.056Z,39.62
2019-03-08T20:08:40.762Z,39.67
2019-03-08T20:11:15.324Z,39.70
2019-03-08T20:13:49.877Z,39.79
2019-03-08T20:16:22.251Z,39.83
2019-03-08T20:18:57.603Z,39.88
2019-03-08T20:21:39.136Z,39.93
2019-03-08T20:24:16.936Z,39.98
2019-03-08T20:26:54.691Z,40.00
2019-03-08T20:29:29.936Z,40.04
2019-03-08T20:32:12.367Z,40.12
2019-03-08T20:34:44.472Z,40.17
2019-03-08T20:37:29.815Z,40.23
2019-03-08T20:40:11.541Z,40.27
2019-03-08T20:42:43.894Z,40.34
2019-03-08T20:45:16.290Z,40.38
2019-03-08T20:47:47.950Z,40.46
2019-03-08T20:50:18.179Z,40.49
2019-03-08T20:52:48.568Z,40.53
2019-03-08T20:55:19.181Z,40.60
2019-03-08T20:57:49.524Z,40.66
2019-03-08T21:00:21.168Z,40.68
2019-03-08T21:02:52.691Z,40.74
2019-03-08T21:05:24.251Z,40.80
2019-03-08T21:07:55.598Z,40.86
2019-03-08T21:10:27.667Z,40.89
2019-03-08T21:12:58.874Z,40.95
2019-03-08T21:15:30.238Z,41.01
2019-03-08T21:18:00.690Z,41.09
2019-03-08T21:20:31.891Z,41.13
2019-03-08T21:23:02.632Z,41.18
2019-03-08T21:25:36.454Z,41.23
2019-03-08T21:28:06.761Z,41.29
2019-03-08T21:30:37.119Z,41.32
2019-03-08T21:33:08.534Z,41.39
2019-03-08T21:35:41.032Z,41.46
2019-03-08T21:38:11.531Z,41.49
2019-03-08T21:40:43.632Z,41.57
2019-03-08T21:43:15.131Z,41.63
2019-03-08T21:45:46.128Z,41.68
2019-03-08T21:48:16.828Z,41.79
2019-03-08T21:50:47.182Z,41.83
2019-03-08T21:53:17.983Z,41.89
2019-03-08T21:55:48.228Z,41.97
2019-03-08T21:58:25.125Z,42.05
2019-03-08T22:00:55.836Z,42.08
2019-03-08T22:03:26.143Z,42.16
2019-03-08T22:05:57.091Z,42.22
2019-03-08T22:08:27.876Z,42.28
2019-03-08T22:11:04.494Z,42.34
2019-03-08T22:13:35.264Z,42.41
2019-03-08T22:16:05.987Z,42.48
2019-03-08T22:18:37.086Z,42.53
2019-03-08T22:21:08.020Z,42.61
2019-03-08T22:23:38.822Z,42.66
2019-03-08T22:26:09.662Z,42.72
2019-03-08T22:28:40.110Z,42.78
2019-03-08T22:31:10.281Z,42.82
2019-03-08T22:33:40.589Z,42.90
2019-03-08T22:36:11.200Z,42.95
2019-03-08T22:38:41.568Z,43.02
2019-03-08T22:41:12.155Z,43.04
2019-03-08T22:43:42.898Z,43.11
2019-03-08T22:46:13.216Z,43.20
2019-03-08T22:48:43.430Z,43.24
2019-03-08T22:51:13.993Z,43.29
2019-03-08T22:53:44.773Z,43.36
2019-03-08T22:56:15.023Z,43.41
2019-03-08T22:58:45.336Z,43.46
2019-03-08T23:01:20.676Z,43.52
2019-03-08T23:03:52.643Z,43.57
2019-03-08T23:06:24.511Z,43.66
2019-03-08T23:08:55.824Z,43.68
2019-03-08T23:11:27.892Z,43.75
2019-03-08T23:13:58.238Z,43.80
2019-03-08T23:16:29.297Z,43.84
2019-03-08T23:19:01.717Z,43.91
2019-03-08T23:21:32.644Z,43.96
2019-03-08T23:24:03.373Z,44.02
2019-03-08T23:26:35.730Z,44.07
2019-03-08T23:29:09.769Z,44.13
2019-03-08T23:31:42.107Z,44.20
2019-03-08T23:34:12.747Z,44.25
2019-03-08T23:36:43.375Z,44.31
2019-03-08T23:42:03.821Z,44.43
2019-03-08T23:44:35.702Z,44.52
2019-03-08T23:47:08.092Z,44.57
2019-03-08T23:49:39.023Z,44.65
2019-03-08T23:52:09.795Z,44.71
2019-03-08T23:54:41.917Z,44.77
2019-03-08T23:57:12.361Z,44.82
2019-03-08T23:59:42.715Z,44.86
